Time;durP1;ratioP1;P1;durP2;ratioP2;P2;SDS_P1;SDS_P2;PMS_P1;PMS_P2;Temp;Humidity;BMP_temperature;BMP_pressure;BME280_temperature;BME280_humidity;BME280_pressure;Samples;Min_cycle;Max_cycle;Signal;HPM_P1;HPM_P2
2023/06/19 00:02:18;;;;;;;4.78;3.65;;;;;;;18.13;100.00;64876.53;5073344;28;20192;-57
2023/06/19 00:04:43;;;;;;;4.15;3.72;;;;;;;18.17;100.00;64883.50;5073306;28;20216;-59
2023/06/19 00:07:08;;;;;;;4.07;3.67;;;;;;;18.10;100.00;64873.22;5073196;28;20732;-60
2023/06/19 00:09:34;;;;;;;3.65;3.35;;;;;;;18.06;100.00;64868.81;5073027;28;20303;-58
2023/06/19 00:12:01;;;;;;;5.10;3.17;;;;;;;18.02;100.00;64863.84;5071789;28;20231;-57
2023/06/19 00:14:26;;;;;;;5.20;4.07;;;;;;;18.06;100.00;64868.81;5072904;28;20212;-60
2023/06/19 00:16:52;;;;;;;6.45;3.72;;;;;;;18.03;100.00;64870.06;5072982;28;20265;-58
2023/06/19 00:19:17;;;;;;;6.15;3.33;;;;;;;17.97;100.00;64861.44;5072713;28;20209;-56
2023/06/19 00:21:43;;;;;;;3.58;3.10;;;;;;;17.97;100.00;64864.00;5072228;28;20291;-58
2023/06/19 00:24:10;;;;;;;3.83;3.10;;;;;;;18.01;100.00;64862.75;5072707;28;20767;-56
2023/06/19 00:26:35;;;;;;;4.72;3.25;;;;;;;18.02;100.00;64863.84;5072635;28;20205;-56
2023/06/19 00:29:01;;;;;;;3.47;3.17;;;;;;;17.92;100.00;64855.38;5072690;28;20285;-55
2023/06/19 00:31:27;;;;;;;4.18;3.70;;;;;;;17.85;100.00;64850.22;5072585;28;20199;-57
2023/06/19 00:33:53;;;;;;;5.53;3.38;;;;;;;17.86;100.00;64849.31;5054651;28;20208;-56
2023/06/19 00:36:25;;;;;;;4.90;3.25;;;;;;;17.81;100.00;64840.69;5072689;28;20197;-56
2023/06/19 00:38:52;;;;;;;4.47;3.60;;;;;;;17.78;100.00;64839.94;5071291;28;20265;-56
2023/06/19 00:41:17;;;;;;;3.95;3.28;;;;;;;17.75;100.00;64836.63;5072412;28;20217;-56
2023/06/19 00:43:43;;;;;;;4.60;3.50;;;;;;;17.73;100.00;64835.00;5072648;28;20273;-56
2023/06/19 00:46:10;;;;;;;5.45;3.30;;;;;;;17.71;100.00;64835.34;5072531;28;20212;-56
2023/06/19 00:48:36;;;;;;;4.20;3.80;;;;;;;17.73;100.00;64835.00;5072186;28;20235;-56
2023/06/19 00:51:01;;;;;;;5.60;4.00;;;;;;;17.69;100.00;64830.56;5072625;28;20571;-57
2023/06/19 00:53:27;;;;;;;3.42;3.13;;;;;;;17.63;100.00;64823.97;5072235;28;20209;-60
2023/06/19 00:55:54;;;;;;;4.28;3.58;;;;;;;17.66;100.00;64829.25;5072504;28;20196;-60
2023/06/19 00:58:21;;;;;;;5.30;3.50;;;;;;;17.63;100.00;64823.97;5072435;28;20220;-57
2023/06/19 01:00:47;;;;;;;4.38;3.72;;;;;;;17.63;100.00;64821.41;5072362;28;20208;-57
2023/06/19 01:03:13;;;;;;;3.80;3.40;;;;;;;17.63;100.00;64826.50;5072340;28;20307;-58
2023/06/19 01:05:38;;;;;;;4.30;3.47;;;;;;;17.66;100.00;64827.25;5072112;28;20239;-58
2023/06/19 01:08:12;;;;;;;5.55;3.45;;;;;;;17.64;100.00;64822.50;5072199;28;20229;-57
2023/06/19 01:10:47;;;;;;;9.98;3.03;;;;;;;17.65;100.00;64826.16;5072186;28;20697;-57
2023/06/19 01:13:18;;;;;;;6.70;3.80;;;;;;;17.62;100.00;64820.31;5072025;28;20308;-57
2023/06/19 01:15:46;;;;;;;4.25;3.85;;;;;;;17.58;100.00;64818.44;5072009;28;20177;-56
2023/06/19 01:18:12;;;;;;;4.03;3.35;;;;;;;17.55;100.00;64812.59;5054289;28;20330;-56
2023/06/19 01:20:38;;;;;;;4.32;3.30;;;;;;;17.59;100.00;64817.00;5071839;28;20208;-57
2023/06/19 01:23:08;;;;;;;6.35;3.53;;;;;;;17.55;100.00;64815.16;5070518;28;20217;-56
2023/06/19 01:25:35;;;;;;;4.68;3.58;;;;;;;17.64;100.00;64822.50;5069710;28;20181;-57
2023/06/19 01:28:04;;;;;;;5.72;3.50;;;;;;;17.63;100.00;64821.41;5070152;28;20201;-57
2023/06/19 01:30:29;;;;;;;4.10;3.72;;;;;;;17.63;100.00;64823.97;5070067;28;20743;-57
2023/06/19 01:33:10;;;;;;;4.00;3.60;;;;;;;17.62;100.00;64825.41;5068594;28;20219;-57
2023/06/19 01:35:39;;;;;;;5.30;3.22;;;;;;;17.62;100.00;64822.84;5071919;28;20299;-59
2023/06/19 01:38:06;;;;;;;5.90;3.47;;;;;;;17.56;100.00;64813.69;5071770;28;20314;-56
2023/06/19 01:40:32;;;;;;;4.43;3.63;;;;;;;17.59;100.00;64817.53;5071122;28;20686;-56
2023/06/19 01:43:00;;;;;;;5.15;4.00;;;;;;;17.57;100.00;64819.91;5071099;28;20258;-56
2023/06/19 01:45:28;;;;;;;3.88;3.45;;;;;;;17.56;100.00;64811.16;5071411;28;20204;-56
2023/06/19 01:47:54;;;;;;;4.10;3.25;;;;;;;17.50;100.00;64810.19;5071648;28;20209;-55
2023/06/19 01:50:21;;;;;;;4.15;3.35;;;;;;;17.47;100.00;64804.28;5071466;28;20353;-56
2023/06/19 01:52:47;;;;;;;4.70;3.90;;;;;;;17.51;100.00;64808.19;5071319;28;20211;-60
2023/06/19 01:55:13;;;;;;;5.22;3.88;;;;;;;17.49;100.00;64811.63;5071234;28;20205;-57
2023/06/19 01:57:39;;;;;;;4.55;4.13;;;;;;;17.50;100.00;64809.63;5071397;28;20193;-57
2023/06/19 02:00:10;;;;;;;4.68;3.70;;;;;;;17.44;100.00;64800.44;5071180;28;20228;-58
2023/06/19 02:02:35;;;;;;;4.82;3.78;;;;;;;17.42;100.00;64800.78;5071292;28;20216;-58
2023/06/19 02:05:01;;;;;;;4.47;3.90;;;;;;;17.37;100.00;64792.75;5071085;28;20244;-58
2023/06/19 02:07:26;;;;;;;4.85;3.97;;;;;;;17.31;100.00;64788.69;5071029;28;20563;-58
2023/06/19 02:09:52;;;;;;;4.40;3.80;;;;;;;17.32;100.00;64790.31;5071702;28;20213;-59
2023/06/19 02:12:17;;;;;;;4.95;3.80;;;;;;;17.27;100.00;64784.28;5071152;28;20288;-60
2023/06/19 02:14:43;;;;;;;4.22;3.80;;;;;;;17.27;100.00;64781.72;5071495;28;20688;-60
2023/06/19 02:17:08;;;;;;;4.25;3.72;;;;;;;17.25;100.00;64785.16;5071041;28;20224;-60
2023/06/19 02:19:33;;;;;;;4.55;3.63;;;;;;;17.26;100.00;64783.16;5071038;28;20370;-57
2023/06/19 02:21:59;;;;;;;5.88;3.97;;;;;;;17.28;100.00;64785.91;5071119;28;20666;-56
2023/06/19 02:24:24;;;;;;;4.97;3.95;;;;;;;17.20;100.00;64774.00;5071174;28;20671;-59
2023/06/19 02:26:50;;;;;;;5.97;3.80;;;;;;;17.22;100.00;64778.75;5071016;28;20199;-59
2023/06/19 02:29:16;;;;;;;5.90;4.13;;;;;;;17.28;100.00;64785.91;5071270;28;20751;-60
2023/06/19 02:31:42;;;;;;;7.80;3.90;;;;;;;17.22;100.00;64778.75;5070843;28;20670;-60
2023/06/19 02:34:08;;;;;;;4.38;3.78;;;;;;;17.21;100.00;64775.13;5071209;28;20291;-60
2023/06/19 02:36:35;;;;;;;5.38;3.65;;;;;;;17.19;100.00;64776.00;5070677;28;20196;-60
2023/06/19 02:39:01;;;;;;;5.32;4.03;;;;;;;17.24;100.00;64781.50;5070778;28;20269;-58
2023/06/19 02:41:27;;;;;;;6.05;4.40;;;;;;;16.94;100.00;64745.38;5070513;28;20273;-59
2023/06/19 02:43:53;;;;;;;4.53;3.85;;;;;;;16.83;100.00;64733.25;5070539;28;20209;-61
2023/06/19 02:46:19;;;;;;;6.72;4.10;;;;;;;16.85;100.00;64738.53;5075844;28;20253;-57
2023/06/19 02:48:44;;;;;;;5.93;4.20;;;;;;;16.84;100.00;64740.00;5075476;28;20204;-58
2023/06/19 02:51:10;;;;;;;5.15;4.18;;;;;;;16.79;100.00;64729.94;5075966;28;20246;-59
2023/06/19 02:53:36;;;;;;;5.07;4.30;;;;;;;16.83;100.00;64736.34;5077540;28;20299;-57
2023/06/19 02:56:01;;;;;;;4.75;4.07;;;;;;;16.82;100.00;64734.69;5077185;28;20738;-58
2023/06/19 02:58:27;;;;;;;5.75;3.45;;;;;;;16.80;100.00;64735.59;5077280;28;20208;-58
2023/06/19 03:00:52;;;;;;;4.85;4.35;;;;;;;16.72;100.00;64724.78;5077342;28;20247;-58
2023/06/19 03:03:18;;;;;;;5.93;4.57;;;;;;;16.79;100.00;64734.47;5077156;28;20216;-58
2023/06/19 03:05:44;;;;;;;5.97;4.47;;;;;;;16.82;100.00;64737.78;5077335;28;20271;-57
2023/06/19 03:08:09;;;;;;;8.05;4.38;;;;;;;16.78;100.00;64730.84;5077043;28;20585;-59
2023/06/19 03:10:35;;;;;;;7.70;5.28;;;;;;;16.65;100.00;64717.06;5077231;28;20168;-58
2023/06/19 03:13:00;;;;;;;9.18;4.75;;;;;;;16.52;100.00;64699.69;5077121;28;20216;-58
2023/06/19 03:15:26;;;;;;;8.60;4.60;;;;;;;16.51;100.00;64701.09;5077087;28;20245;-59
2023/06/19 03:17:53;;;;;;;7.60;4.88;;;;;;;16.49;100.00;64699.47;5077274;28;20643;-65
2023/06/19 03:20:20;;;;;;;7.95;5.05;;;;;;;16.49;100.00;64698.91;5076898;28;20247;-57
2023/06/19 03:22:46;;;;;;;9.75;5.28;;;;;;;16.42;100.00;64689.19;5077037;28;20208;-57
2023/06/19 03:25:12;;;;;;;6.53;4.88;;;;;;;16.41;100.00;64690.63;5077117;28;20247;-57
2023/06/19 03:27:37;;;;;;;6.93;5.07;;;;;;;16.32;100.00;64680.72;5076829;28;20220;-57
2023/06/19 03:30:08;;;;;;;8.45;5.53;;;;;;;16.26;100.00;64676.66;5076832;28;20211;-57
2023/06/19 03:32:34;;;;;;;5.43;4.88;;;;;;;16.32;100.00;64680.72;5076810;28;20201;-59
2023/06/19 03:35:01;;;;;;;5.60;4.95;;;;;;;16.39;100.00;64685.88;5075451;28;20212;-61
2023/06/19 03:37:26;;;;;;;7.95;5.85;;;;;;;16.37;100.00;64688.78;5075323;28;20207;-58
2023/06/19 03:39:52;;;;;;;9.85;5.85;;;;;;;16.43;100.00;64692.84;5076537;28;20694;-59
2023/06/19 03:42:17;;;;;;;5.65;4.95;;;;;;;16.50;100.00;64700.56;5076641;28;20216;-56
2023/06/19 03:44:43;;;;;;;6.50;4.75;;;;;;;16.51;100.00;64701.66;5076924;28;20208;-56
2023/06/19 03:47:08;;;;;;;7.32;4.55;;;;;;;16.55;100.00;64706.06;5076719;28;20645;-56
2023/06/19 03:49:35;;;;;;;10.55;5.00;;;;;;;16.59;100.00;64710.47;5076626;28;20753;-57
2023/06/19 03:52:01;;;;;;;6.35;5.30;;;;;;;16.58;100.00;64709.34;5076631;28;20704;-59
2023/06/19 03:54:26;;;;;;;9.32;5.35;;;;;;;16.57;100.00;64708.28;5076561;28;20208;-58
2023/06/19 03:56:52;;;;;;;7.75;6.07;;;;;;;16.56;100.00;64704.63;5072812;28;20213;-59
2023/06/19 03:59:18;;;;;;;10.57;6.00;;;;;;;16.58;100.00;64711.38;5055071;28;20701;-59
2023/06/19 04:01:43;;;;;;;7.75;5.63;;;;;;;16.60;100.00;64708.47;5073118;28;20231;-59
2023/06/19 04:04:09;;;;;;;9.50;5.75;;;;;;;16.65;100.00;64713.97;5071643;28;20650;-58
2023/06/19 04:06:35;;;;;;;8.68;6.53;;;;;;;16.71;100.00;64720.59;5072934;28;20305;-57
2023/06/19 04:09:00;;;;;;;10.77;6.60;;;;;;;16.74;100.00;64726.44;5072857;28;20236;-59
2023/06/19 04:11:25;;;;;;;8.45;6.43;;;;;;;16.78;100.00;64731.41;5072962;28;20559;-58
2023/06/19 04:13:51;;;;;;;10.25;5.25;;;;;;;16.74;100.00;64724.44;5073045;28;20204;-58
2023/06/19 04:16:16;;;;;;;6.63;5.68;;;;;;;16.81;100.00;64731.06;5072899;28;20738;-59
2023/06/19 04:18:41;;;;;;;9.82;6.25;;;;;;;16.84;100.00;64731.81;5072779;28;20201;-59
2023/06/19 04:21:07;;;;;;;8.75;5.63;;;;;;;16.79;100.00;64729.41;5072779;28;20209;-59
2023/06/19 04:23:32;;;;;;;7.22;5.10;;;;;;;16.82;100.00;64737.25;5071570;28;20204;-57
2023/06/19 04:25:58;;;;;;;7.68;5.57;;;;;;;16.92;100.00;64745.72;5072764;28;20201;-58
2023/06/19 04:28:23;;;;;;;7.03;4.97;;;;;;;17.18;100.00;64774.91;5072618;28;20231;-59
2023/06/19 04:30:49;;;;;;;5.50;4.45;;;;;;;17.21;100.00;64775.66;5072644;28;20212;-58
2023/06/19 04:33:14;;;;;;;11.63;6.00;;;;;;;17.15;100.00;64768.50;5072804;28;20736;-59
2023/06/19 04:35:39;;;;;;;9.63;6.55;;;;;;;17.14;100.00;64772.50;5072606;28;20188;-59
2023/06/19 04:38:06;;;;;;;13.57;7.10;;;;;;;17.19;100.00;64775.47;5072301;28;20693;-58
2023/06/19 04:40:32;;;;;;;10.25;7.15;;;;;;;17.27;100.00;64787.34;5072311;28;20205;-58
2023/06/19 04:42:59;;;;;;;12.43;5.82;;;;;;;17.59;100.00;64820.09;5072433;28;20212;-58
2023/06/19 04:45:24;;;;;;;7.80;5.65;;;;;;;17.79;100.00;64839.06;5072529;28;20791;-59
2023/06/19 04:47:50;;;;;;;10.02;6.28;;;;;;;17.93;100.00;64857.03;5072300;28;20283;-60
2023/06/19 04:50:16;;;;;;;8.88;5.57;;;;;;;18.03;100.00;64868.06;5072376;28;20248;-61
2023/06/19 04:52:41;;;;;;;7.13;5.53;;;;;;;18.24;100.00;64891.19;5072530;28;20296;-56
2023/06/19 04:55:09;;;;;;;9.32;5.78;;;;;;;18.68;100.00;64941.78;5072073;28;20287;-56
2023/06/19 04:57:36;;;;;;;7.47;6.03;;;;;;;19.05;100.00;64976.94;5072144;28;20258;-56
2023/06/19 05:00:05;;;;;;;11.07;6.78;;;;;;;19.46;100.00;65021.66;5072045;28;20208;-57
2023/06/19 05:02:31;;;;;;;6.00;5.32;;;;;;;19.43;100.00;65020.91;5072228;28;20219;-56
2023/06/19 05:04:56;;;;;;;9.73;7.30;;;;;;;19.42;100.00;65019.78;5072077;28;20213;-57
2023/06/19 05:07:21;;;;;;;7.13;6.05;;;;;;;19.14;100.00;64986.88;5071704;28;20731;-58
2023/06/19 05:09:47;;;;;;;7.93;5.55;;;;;;;19.17;100.00;64990.72;5072097;28;20279;-57
2023/06/19 05:12:12;;;;;;;12.57;6.25;;;;;;;19.19;100.00;64992.94;5071766;28;20631;-57
2023/06/19 05:14:38;;;;;;;9.00;6.20;;;;;;;19.26;100.00;65000.66;5072177;28;20213;-57
2023/06/19 05:17:03;;;;;;;13.88;7.32;;;;;;;19.21;100.00;64997.13;5072117;28;20634;-60
2023/06/19 05:19:28;;;;;;;24.45;12.35;;;;;;;19.25;100.00;64999.00;5072271;28;20244;-61
2023/06/19 05:21:54;;;;;;;9.55;6.75;;;;;;;19.37;100.00;65011.72;5071982;28;20273;-60
2023/06/19 05:24:19;;;;;;;13.57;7.53;;;;;;;19.21;100.00;64994.59;5071682;28;20197;-56
2023/06/19 05:26:45;;;;;;;6.55;5.80;;;;;;;19.10;100.00;64985.56;5070381;28;20246;-58
2023/06/19 05:29:11;;;;;;;5.55;4.75;;;;;;;18.71;98.27;64941.97;5071691;28;20702;-59
2023/06/19 05:31:36;;;;;;;9.02;4.80;;;;;;;18.76;100.00;64945.50;5071677;28;20201;-57
2023/06/19 05:34:01;;;;;;;10.32;5.10;;;;;;;18.82;100.00;64951.56;5071544;28;20557;-56
2023/06/19 05:36:27;;;;;;;5.82;4.65;;;;;;;18.84;94.63;64954.31;5067999;28;20658;-56
2023/06/19 05:38:52;;;;;;;5.80;4.38;;;;;;;19.00;97.26;64973.97;5069597;28;20216;-57
2023/06/19 05:41:18;;;;;;;4.93;4.40;;;;;;;18.79;95.53;64948.22;5069945;28;20208;-57
2023/06/19 05:43:43;;;;;;;8.20;4.47;;;;;;;18.78;96.47;64947.69;5071744;28;20216;-59
2023/06/19 05:46:09;;;;;;;5.47;4.28;;;;;;;19.16;100.00;64989.06;5071487;28;20193;-60
2023/06/19 05:48:35;;;;;;;4.18;3.70;;;;;;;19.22;95.87;64995.69;5069176;28;20231;-60
2023/06/19 05:51:00;;;;;;;5.22;4.20;;;;;;;19.21;94.96;64995.13;5070546;28;20196;-60
2023/06/19 05:53:26;;;;;;;4.50;3.95;;;;;;;19.29;97.52;65003.97;5071441;28;20708;-60
2023/06/19 05:55:51;;;;;;;4.40;4.00;;;;;;;19.51;98.01;65032.84;5071290;28;20193;-61
2023/06/19 05:58:19;;;;;;;5.60;4.97;;;;;;;19.65;97.73;65043.19;5071100;28;20690;-60
2023/06/19 06:00:46;;;;;;;4.80;4.05;;;;;;;19.71;95.78;65052.38;5071013;28;20213;-60
2023/06/19 06:03:13;;;;;;;5.03;4.00;;;;;;;19.45;88.51;65020.56;5071433;28;20282;-60
2023/06/19 06:05:39;;;;;;;10.55;4.50;;;;;;;19.39;96.14;65016.50;5071166;28;20279;-60
2023/06/19 06:08:04;;;;;;;4.68;4.20;;;;;;;19.74;94.34;65050.56;5071066;28;20331;-57
2023/06/19 06:10:30;;;;;;;5.65;3.72;;;;;;;19.71;95.69;65049.28;5071018;28;20283;-59
2023/06/19 06:12:55;;;;;;;5.25;3.95;;;;;;;19.88;98.21;65068.03;5071094;28;20268;-60
2023/06/19 06:15:21;;;;;;;7.32;4.30;;;;;;;19.79;90.66;65055.53;5058805;23;20338;-59
2023/06/19 06:17:46;;;;;;;5.15;4.60;;;;;;;20.07;97.33;65089.59;5050935;28;20747;-59
2023/06/19 06:20:12;;;;;;;4.45;3.33;;;;;;;20.04;88.30;65083.16;5050014;28;20593;-60
2023/06/19 06:22:41;;;;;;;3.38;3.08;;;;;;;19.89;90.03;65072.25;5051044;28;20205;-59
2023/06/19 06:25:09;;;;;;;5.35;4.05;;;;;;;19.74;87.37;65053.13;5051056;28;20216;-59
2023/06/19 06:27:35;;;;;;;4.78;3.63;;;;;;;20.16;94.87;65095.88;5050939;28;20277;-58
2023/06/19 06:30:01;;;;;;;4.88;3.83;;;;;;;20.09;90.62;65091.78;5050981;28;20250;-58
2023/06/19 06:32:28;;;;;;;4.55;3.85;;;;;;;20.14;86.31;65093.66;5032878;28;20209;-57
2023/06/19 06:34:54;;;;;;;4.65;4.10;;;;;;;20.35;89.93;65119.97;5033175;28;20278;-57
2023/06/19 06:37:22;;;;;;;5.13;4.22;;;;;;;20.30;86.32;65113.91;5050740;28;20614;-61
2023/06/19 06:39:49;;;;;;;6.07;4.22;;;;;;;20.29;88.17;65108.22;5050637;28;20240;-56
2023/06/19 06:42:14;;;;;;;4.32;3.92;;;;;;;20.07;87.83;65089.03;5050765;28;20193;-60
2023/06/19 06:44:40;;;;;;;5.45;4.22;;;;;;;20.27;88.01;65110.59;5032689;28;20217;-60
2023/06/19 06:47:05;;;;;;;6.80;4.15;;;;;;;20.51;86.11;65137.66;5050498;28;20198;-57
2023/06/19 06:49:30;;;;;;;5.93;3.80;;;;;;;20.66;89.82;65156.25;5050970;28;20213;-57
2023/06/19 06:51:56;;;;;;;5.80;4.80;;;;;;;20.94;89.94;65184.63;5050490;28;20301;-57
2023/06/19 06:54:21;;;;;;;6.05;4.20;;;;;;;20.88;84.93;65178.56;5050603;28;20331;-57
2023/06/19 06:56:48;;;;;;;4.38;3.67;;;;;;;20.96;85.69;65183.72;5050694;28;20221;-59
2023/06/19 06:59:15;;;;;;;8.05;4.50;;;;;;;20.99;85.17;65187.59;5050417;28;20221;-59
2023/06/19 07:01:42;;;;;;;7.43;4.45;;;;;;;21.12;82.14;65199.44;5050193;28;20217;-60
2023/06/19 07:04:07;;;;;;;5.45;3.97;;;;;;;20.93;82.26;65183.53;5050139;28;20656;-59
2023/06/19 07:06:32;;;;;;;6.05;4.68;;;;;;;21.14;81.85;65206.78;5050384;28;20284;-58
2023/06/19 07:08:58;;;;;;;4.35;3.60;;;;;;;21.16;80.80;65208.44;5050243;28;20217;-57
2023/06/19 07:11:23;;;;;;;7.53;4.95;;;;;;;21.22;79.78;65213.06;5050340;28;20201;-57
2023/06/19 07:13:49;;;;;;;5.60;4.57;;;;;;;21.34;80.21;65228.88;5050549;28;20725;-58
2023/06/19 07:16:14;;;;;;;5.78;4.05;;;;;;;21.14;77.84;65206.22;5050352;28;20231;-57
2023/06/19 07:18:41;;;;;;;5.50;4.35;;;;;;;21.20;75.65;65213.41;5050008;28;20209;-57
2023/06/19 07:21:14;;;;;;;4.50;3.78;;;;;;;21.14;75.32;65208.78;5050167;28;20237;-57
2023/06/19 07:23:41;;;;;;;4.43;4.03;;;;;;;21.44;80.77;65242.50;5050032;28;20282;-59
2023/06/19 07:26:06;;;;;;;5.50;4.00;;;;;;;21.65;80.01;65263.16;5032422;28;20201;-57
2023/06/19 07:28:32;;;;;;;4.40;3.70;;;;;;;21.62;72.98;65259.84;5050123;28;20228;-59
2023/06/19 07:30:57;;;;;;;6.05;3.63;;;;;;;21.42;71.42;65237.19;5050653;28;20197;-59
2023/06/19 07:33:23;;;;;;;4.78;4.38;;;;;;;21.44;75.34;65241.94;5053605;28;20323;-57
2023/06/19 07:35:48;;;;;;;4.30;3.58;;;;;;;21.44;73.06;65239.94;5053501;28;20733;-57
2023/06/19 07:38:13;;;;;;;4.43;3.88;;;;;;;21.50;74.81;65246.59;5053475;28;20328;-57
2023/06/19 07:40:39;;;;;;;8.50;4.82;;;;;;;21.68;71.40;65265.94;5053407;28;20631;-56
2023/06/19 07:43:05;;;;;;;8.18;4.85;;;;;;;21.69;72.14;65267.59;5053308;28;20225;-57
2023/06/19 07:45:30;;;;;;;6.78;4.32;;;;;;;21.90;70.64;65289.75;5053311;28;20194;-57
2023/06/19 07:47:56;;;;;;;4.25;3.63;;;;;;;21.85;70.98;65284.22;5053067;28;20259;-57
2023/06/19 07:50:22;;;;;;;4.82;3.88;;;;;;;21.97;69.19;65295.50;5053329;28;20188;-56
2023/06/19 07:52:47;;;;;;;4.05;3.65;;;;;;;22.17;71.21;65317.06;5053410;28;20205;-56
2023/06/19 07:55:13;;;;;;;5.20;3.53;;;;;;;22.02;68.82;65301.00;5053121;28;20217;-57
2023/06/19 07:57:39;;;;;;;4.80;3.47;;;;;;;22.12;68.50;65314.09;5052962;28;20219;-57
2023/06/19 08:00:10;;;;;;;5.72;3.90;;;;;;;22.10;72.54;65311.88;5053054;28;20300;-57
2023/06/19 08:02:37;;;;;;;4.88;3.60;;;;;;;22.02;71.89;65303.56;5053011;28;20189;-59
2023/06/19 08:05:02;;;;;;;3.80;3.38;;;;;;;22.17;68.93;65317.63;5052902;28;20205;-59
2023/06/19 08:07:28;;;;;;;4.85;3.78;;;;;;;22.54;70.54;65358.03;5052933;28;20209;-57
2023/06/19 08:09:54;;;;;;;4.47;3.50;;;;;;;22.70;67.69;65377.78;5052873;28;20215;-56
2023/06/19 08:12:19;;;;;;;7.07;3.70;;;;;;;22.65;67.77;65372.78;5053041;28;20201;-56
2023/06/19 08:14:44;;;;;;;4.20;3.40;;;;;;;22.81;69.31;65387.38;5052763;28;20205;-57
2023/06/19 08:17:10;;;;;;;5.65;3.40;;;;;;;22.98;65.46;65408.78;5052759;28;20305;-56
2023/06/19 08:19:35;;;;;;;3.72;3.33;;;;;;;22.93;65.33;65401.22;5052702;28;20756;-56
2023/06/19 08:22:01;;;;;;;4.32;3.63;;;;;;;22.81;62.77;65390.50;5052939;28;20217;-58
2023/06/19 08:24:27;;;;;;;3.85;3.55;;;;;;;22.70;60.65;65378.34;5052596;28;20201;-57
2023/06/19 08:26:53;;;;;;;2.88;2.67;;;;;;;22.71;61.20;65376.84;5035122;28;20752;-57
2023/06/19 08:29:19;;;;;;;6.22;3.88;;;;;;;22.86;64.24;65395.50;5052698;28;20304;-57
2023/06/19 08:31:44;;;;;;;8.95;3.33;;;;;;;22.90;62.07;65400.47;5052783;28;20687;-57
2023/06/19 08:34:10;;;;;;;3.65;3.25;;;;;;;22.73;63.79;65381.09;5052728;28;20206;-57
2023/06/19 08:36:36;;;;;;;7.68;3.80;;;;;;;23.02;63.54;65413.78;5052498;28;20224;-62
2023/06/19 08:39:02;;;;;;;4.20;3.80;;;;;;;23.09;61.30;65418.38;5052490;28;20216;-58
2023/06/19 08:41:28;;;;;;;3.53;3.22;;;;;;;22.97;58.61;65407.66;5052114;28;20300;-58
2023/06/19 08:43:54;;;;;;;5.60;3.10;;;;;;;23.09;60.28;65418.38;5052285;28;20297;-59
2023/06/19 08:46:20;;;;;;;4.25;3.28;;;;;;;23.20;58.52;65430.56;5052414;28;20194;-58
2023/06/19 08:48:46;;;;;;;4.00;3.40;;;;;;;23.33;58.06;65448.13;5053683;28;20327;-59
2023/06/19 08:51:13;;;;;;;3.25;2.95;;;;;;;23.33;56.66;65442.97;5072575;28;20686;-59
2023/06/19 08:53:47;;;;;;;3.95;3.47;;;;;;;23.54;60.01;65470.28;5071155;28;20200;-61
2023/06/19 08:56:13;;;;;;;5.53;3.25;;;;;;;23.56;60.34;65473.06;5071791;28;20201;-61
2023/06/19 08:58:39;;;;;;;3.83;3.20;;;;;;;23.72;56.62;65487.66;5072177;28;20353;-59
2023/06/19 09:01:04;;;;;;;3.95;3.55;;;;;;;23.85;56.49;65502.63;5071913;28;20212;-60
2023/06/19 09:03:30;;;;;;;4.47;3.53;;;;;;;23.65;53.85;65482.47;5054157;28;20215;-61
2023/06/19 09:05:55;;;;;;;7.10;3.85;;;;;;;23.54;53.87;65468.25;5072202;28;20702;-60
2023/06/19 09:08:22;;;;;;;8.20;3.55;;;;;;;23.65;56.52;65477.34;5072087;28;20581;-57
2023/06/19 09:11:04;;;;;;;4.15;3.42;;;;;;;24.20;58.80;65543.47;5071996;28;20193;-59
2023/06/19 09:13:31;;;;;;;3.42;3.13;;;;;;;24.43;60.75;65566.41;5069646;28;20652;-57
2023/06/19 09:16:01;;;;;;;5.32;3.40;;;;;;;24.84;60.88;65609.31;5069671;28;20285;-56
2023/06/19 09:18:28;;;;;;;6.25;3.70;;;;;;;24.93;53.83;65621.88;5069672;28;20216;-57
2023/06/19 09:21:01;;;;;;;3.55;3.25;;;;;;;25.14;54.92;65646.66;5069592;28;20263;-59
2023/06/19 09:23:26;;;;;;;5.15;3.30;;;;;;;25.25;54.53;65659.41;5068706;28;20225;-60
2023/06/19 09:25:58;;;;;;;4.57;3.60;;;;;;;25.22;53.83;65655.53;5069061;28;20196;-60
2023/06/19 09:28:31;;;;;;;5.43;3.13;;;;;;;24.87;50.44;65617.78;5070799;28;20220;-60
2023/06/19 09:31:00;;;;;;;4.15;2.97;;;;;;;24.68;50.36;65593.56;5071667;28;20212;-59
2023/06/19 09:33:30;;;;;;;4.78;3.00;;;;;;;24.56;49.88;65580.81;5071619;28;20205;-59
2023/06/19 09:35:58;;;;;;;4.20;3.72;;;;;;;24.58;50.30;65585.06;5071648;28;20257;-59
2023/06/19 09:38:27;;;;;;;6.80;4.85;;;;;;;24.72;51.30;65598.00;5071476;28;20208;-58
2023/06/19 09:40:53;;;;;;;5.38;4.03;;;;;;;24.98;51.61;65630.00;5071654;28;20212;-57
2023/06/19 09:43:25;;;;;;;5.30;3.92;;;;;;;25.18;51.37;65648.50;5071561;28;20209;-56
2023/06/19 09:45:54;;;;;;;4.57;3.20;;;;;;;25.43;51.34;65678.84;5071591;28;20203;-58
2023/06/19 09:48:28;;;;;;;4.88;3.45;;;;;;;25.78;49.87;65715.13;5071278;28;20759;-56
2023/06/19 09:50:58;;;;;;;5.72;3.10;;;;;;;24.99;47.90;65628.53;5071162;28;20205;-56
2023/06/19 09:53:24;;;;;;;3.50;3.20;;;;;;;25.20;48.56;65650.72;5070597;28;20215;-57
2023/06/19 09:55:50;;;;;;;3.60;3.28;;;;;;;25.19;47.52;65649.63;5071187;28;20287;-56
2023/06/19 09:58:18;;;;;;;4.80;3.40;;;;;;;24.99;46.82;65631.09;5071242;28;20216;-60
2023/06/19 10:00:45;;;;;;;3.55;3.25;;;;;;;24.87;46.11;65617.78;5071058;28;20221;-61
2023/06/19 10:03:14;;;;;;;3.83;3.53;;;;;;;25.01;48.04;65629.66;5071161;28;20658;-61
2023/06/19 10:05:40;;;;;;;5.43;3.72;;;;;;;25.23;48.26;65654.06;5071080;28;20294;-62
2023/06/19 10:08:06;;;;;;;5.47;3.70;;;;;;;25.52;47.26;65686.25;5070712;28;20208;-61
2023/06/19 10:10:33;;;;;;;3.78;3.15;;;;;;;25.29;45.97;65663.84;5053230;28;20686;-56
2023/06/19 10:13:00;;;;;;;4.47;3.85;;;;;;;25.41;46.66;65671.47;5070873;28;20246;-56
2023/06/19 10:15:34;;;;;;;5.32;3.55;;;;;;;25.62;47.39;65697.91;5070685;28;20284;-59
2023/06/19 10:18:05;;;;;;;5.60;3.60;;;;;;;25.78;46.03;65715.69;5051849;28;20224;-60
2023/06/19 10:20:33;;;;;;;4.78;3.40;;;;;;;26.12;45.49;65752.91;5070949;28;20223;-60
2023/06/19 10:23:04;;;;;;;3.60;3.30;;;;;;;26.29;45.75;65774.38;5052605;28;20671;-59
2023/06/19 10:25:35;;;;;;;4.85;3.20;;;;;;;26.22;43.56;65763.47;5070681;28;20215;-60
2023/06/19 10:28:01;;;;;;;3.08;2.75;;;;;;;26.37;43.27;65780.13;5069745;28;20205;-56
2023/06/19 10:30:27;;;;;;;4.20;2.83;;;;;;;26.58;43.59;65806.59;5069066;28;20249;-59
2023/06/19 10:32:53;;;;;;;3.10;2.85;;;;;;;26.22;41.97;65763.47;5070517;28;20284;-61
2023/06/19 10:35:21;;;;;;;4.13;3.00;;;;;;;26.52;42.67;65799.91;5070874;28;20208;-60
2023/06/19 10:37:47;;;;;;;3.58;3.28;;;;;;;26.68;44.47;65814.00;5070405;28;20702;-60
2023/06/19 10:40:13;;;;;;;3.80;3.00;;;;;;;27.24;45.51;65876.25;5070420;28;20208;-60
2023/06/19 10:42:39;;;;;;;3.78;3.30;;;;;;;26.63;42.25;65809.56;5070633;28;20200;-57
2023/06/19 10:45:08;;;;;;;4.90;2.85;;;;;;;25.73;43.78;65712.16;5070086;28;20227;-58
2023/06/19 10:47:35;;;;;;;4.28;3.80;;;;;;;26.24;44.13;65766.22;5070508;28;20592;-60
2023/06/19 10:50:02;;;;;;;4.30;3.25;;;;;;;26.26;43.61;65768.44;5068968;28;20269;-59
2023/06/19 10:52:30;;;;;;;3.55;3.15;;;;;;;26.39;42.20;65782.91;5070575;28;20580;-60
2023/06/19 10:54:56;;;;;;;7.57;3.17;;;;;;;26.40;43.72;65780.88;5069986;28;20201;-61
2023/06/19 10:57:32;;;;;;;5.65;3.50;;;;;;;26.85;44.00;65832.91;5070714;28;20197;-57
2023/06/19 10:59:58;;;;;;;3.75;3.40;;;;;;;27.07;43.93;65857.38;5070511;28;20298;-56
2023/06/19 11:02:25;;;;;;;4.00;3.67;;;;;;;26.86;41.96;65834.59;5070369;28;20219;-58
2023/06/19 11:04:54;;;;;;;6.30;3.20;;;;;;;27.02;41.83;65851.81;5070720;28;20215;-57
2023/06/19 11:07:20;;;;;;;3.38;3.10;;;;;;;26.70;42.58;65819.38;5074054;28;20209;-58
2023/06/19 11:09:45;;;;;;;5.93;3.65;;;;;;;26.84;42.29;65831.81;5073811;28;20208;-56
2023/06/19 11:12:11;;;;;;;4.15;3.67;;;;;;;26.58;43.63;65803.44;5073986;28;20601;-57
2023/06/19 11:14:39;;;;;;;5.22;3.47;;;;;;;26.66;44.01;65811.78;5073744;28;20212;-58
2023/06/19 11:17:08;;;;;;;3.65;3.08;;;;;;;26.28;45.03;65773.25;5073824;28;20223;-56
2023/06/19 11:19:33;;;;;;;3.60;3.30;;;;;;;25.73;45.51;65712.16;5073463;28;20243;-57
2023/06/19 11:22:02;;;;;;;5.63;3.50;;;;;;;25.55;45.73;65690.13;5073831;28;20220;-57
2023/06/19 11:24:28;;;;;;;5.10;3.53;;;;;;;25.69;46.40;65707.72;5056117;28;20266;-60
2023/06/19 11:26:56;;;;;;;4.53;3.83;;;;;;;25.22;48.81;65653.50;5074077;28;20213;-60